Time;durP1;ratioP1;P1;durP2;ratioP2;P2;SDS_P1;SDS_P2;PMS_P1;PMS_P2;Temp;Humidity;BMP_temperature;BMP_pressure;BME280_temperature;BME280_humidity;BME280_pressure;Samples;Min_cycle;Max_cycle;Signal;HPM_P1;HPM_P2
2023/02/17 00:01:56;;;;;;;0.50;0.50;;;;;;;4.30;90.27;100098.09;5048341;28;20052;-75
2023/02/17 00:04:21;;;;;;;0.60;0.60;;;;;;;4.23;90.45;100104.88;5048202;28;20427;-73
2023/02/17 00:06:46;;;;;;;0.50;0.50;;;;;;;4.21;90.54;100097.16;5063548;28;20025;-74
2023/02/17 00:09:12;;;;;;;1.10;1.10;;;;;;;4.31;90.70;100102.41;5048230;28;20096;-73
2023/02/17 00:11:37;;;;;;;0.60;0.60;;;;;;;4.26;90.62;100094.66;5063694;28;20088;-74
2023/02/17 00:14:03;;;;;;;0.60;0.60;;;;;;;4.19;90.65;100079.97;5047993;28;20025;-73
2023/02/17 00:16:29;;;;;;;0.50;0.50;;;;;;;4.30;90.40;100087.81;5063594;28;20528;-74
2023/02/17 00:18:57;;;;;;;0.95;0.95;;;;;;;4.33;90.59;100088.72;5048296;28;20366;-74
2023/02/17 00:21:24;;;;;;;0.75;0.75;;;;;;;4.36;90.43;100093.03;5048089;28;20037;-73
2023/02/17 00:23:51;;;;;;;0.50;0.50;;;;;;;4.38;90.44;100088.78;5063877;28;20022;-73
2023/02/17 00:26:17;;;;;;;1.45;1.45;;;;;;;4.33;90.61;100080.13;5048157;28;20021;-74
2023/02/17 00:28:43;;;;;;;1.65;1.58;;;;;;;4.42;90.16;100087.13;5046656;28;20052;-74
2023/02/17 00:31:15;;;;;;;0.68;0.68;;;;;;;4.36;90.29;100069.06;5046549;28;20014;-74
2023/02/17 00:33:40;;;;;;;0.70;0.70;;;;;;;4.42;90.43;100079.41;5063267;28;20026;-74
2023/02/17 00:36:10;;;;;;;0.50;0.50;;;;;;;4.40;90.46;100061.38;5047941;28;20030;-74
2023/02/17 00:38:36;;;;;;;3.40;3.13;;;;;;;4.41;90.27;100062.25;5047917;28;20025;-73
2023/02/17 00:41:02;;;;;;;0.85;0.85;;;;;;;4.44;90.31;100057.16;5049304;28;20065;-75
2023/02/17 00:43:28;;;;;;;0.60;0.60;;;;;;;4.44;90.15;100052.84;5047978;28;20084;-73
2023/02/17 00:45:54;;;;;;;2.70;2.45;;;;;;;4.43;90.45;100048.56;5047460;28;20050;-74
2023/02/17 00:48:19;;;;;;;0.50;0.50;;;;;;;4.34;90.33;100033.06;5062946;28;20022;-73
2023/02/17 00:50:45;;;;;;;1.08;1.08;;;;;;;4.44;90.11;100047.72;5046086;28;20029;-74
2023/02/17 00:53:11;;;;;;;1.33;1.27;;;;;;;4.43;89.95;100051.16;5047451;28;20026;-74
2023/02/17 00:55:36;;;;;;;0.73;0.73;;;;;;;4.45;89.98;100046.03;5046161;28;20021;-74
2023/02/17 00:58:02;;;;;;;0.73;0.73;;;;;;;4.42;90.10;100033.13;5047455;28;20045;-73
2023/02/17 01:00:27;;;;;;;1.20;1.10;;;;;;;4.42;90.08;100015.13;5047348;28;20043;-73
2023/02/17 01:02:53;;;;;;;0.80;0.80;;;;;;;4.45;90.15;100031.47;5045991;28;20026;-72
2023/02/17 01:05:18;;;;;;;1.33;1.30;;;;;;;4.48;90.19;100030.63;5047458;28;20026;-74
2023/02/17 01:07:44;;;;;;;0.50;0.50;;;;;;;4.37;90.00;99999.66;5047296;28;20104;-74
2023/02/17 01:10:10;;;;;;;3.05;2.15;;;;;;;4.47;89.84;100008.34;5062424;28;20044;-73
2023/02/17 01:12:35;;;;;;;3.20;2.35;;;;;;;4.50;89.84;100010.06;5047294;28;20037;-74
2023/02/17 01:15:01;;;;;;;0.65;0.65;;;;;;;4.44;89.92;99995.47;5047159;28;20014;-74
2023/02/17 01:17:26;;;;;;;0.65;0.65;;;;;;;4.49;89.90;100004.06;5047266;28;20025;-73
2023/02/17 01:19:51;;;;;;;0.80;0.80;;;;;;;4.46;89.75;99997.19;5062436;28;20029;-74
2023/02/17 01:22:17;;;;;;;1.58;1.52;;;;;;;4.38;89.94;99993.69;5062314;28;20025;-74
2023/02/17 01:24:42;;;;;;;0.50;0.50;;;;;;;4.45;90.02;99992.03;5045838;28;20090;-73
2023/02/17 01:27:08;;;;;;;0.55;0.55;;;;;;;4.47;89.96;99998.91;5045749;28;20170;-74
2023/02/17 01:29:33;;;;;;;1.27;1.17;;;;;;;4.44;89.70;99987.75;5046999;28;20052;-73
2023/02/17 01:31:59;;;;;;;0.55;0.55;;;;;;;4.42;89.43;99982.59;5046933;28;20056;-73
2023/02/17 01:34:24;;;;;;;1.35;1.30;;;;;;;4.37;89.41;99957.69;5046773;28;20026;-73
2023/02/17 01:36:50;;;;;;;2.15;2.05;;;;;;;4.40;89.45;99971.44;5062154;28;20021;-74
2023/02/17 01:39:16;;;;;;;1.52;1.45;;;;;;;4.34;89.54;99963.66;5046341;28;20052;-74
2023/02/17 01:41:42;;;;;;;0.65;0.65;;;;;;;4.34;89.55;99976.50;5045443;28;20037;-73
2023/02/17 01:44:23;;;;;;;0.50;0.50;;;;;;;4.33;89.69;99961.91;5045162;28;20104;-74
2023/02/17 01:46:55;;;;;;;0.70;0.70;;;;;;;4.31;89.51;99961.91;5046743;28;20520;-74
2023/02/17 01:49:40;;;;;;;0.80;0.80;;;;;;;4.29;89.66;99961.03;5061769;28;20097;-73
2023/02/17 01:52:23;;;;;;;0.70;0.70;;;;;;;4.27;89.78;99951.56;5061791;28;20042;-73
2023/02/17 01:55:02;;;;;;;0.52;0.52;;;;;;;4.22;89.81;99938.69;5046406;28;20045;-74
2023/02/17 01:57:31;;;;;;;0.88;0.88;;;;;;;4.14;89.85;99918.06;5045862;28;20029;-73
2023/02/17 01:59:57;;;;;;;0.60;0.60;;;;;;;4.17;89.95;99927.53;5046204;28;20021;-73
2023/02/17 02:02:22;;;;;;;0.50;0.50;;;;;;;4.10;90.00;99918.88;5046273;28;20037;-74
2023/02/17 02:04:50;;;;;;;2.35;2.25;;;;;;;4.13;90.23;99928.31;5046045;28;20033;-73
2023/02/17 02:07:20;;;;;;;1.25;1.25;;;;;;;4.12;89.98;99922.31;5046310;28;20025;-72
2023/02/17 02:09:51;;;;;;;0.70;0.70;;;;;;;4.12;90.25;99916.31;5044743;28;20021;-73
2023/02/17 02:12:22;;;;;;;0.70;0.70;;;;;;;4.11;90.28;99920.59;5046121;28;20030;-72
2023/02/17 02:14:48;;;;;;;3.25;2.60;;;;;;;4.02;90.28;99895.69;5045906;28;20025;-72
2023/02/17 02:18:02;;;;;;;0.75;0.75;;;;;;;4.03;90.53;99904.22;5045978;28;20041;-71
2023/02/17 02:20:36;;;;;;;0.50;0.50;;;;;;;3.95;90.49;99902.47;5031539;28;20033;-72
2023/02/17 02:23:33;;;;;;;0.70;0.70;;;;;;;3.92;90.71;99896.41;5046004;28;20713;-72
2023/02/17 02:26:08;;;;;;;0.50;0.50;;;;;;;3.83;90.86;99884.34;5045764;28;20022;-71
2023/02/17 02:28:53;;;;;;;0.50;0.50;;;;;;;3.81;90.78;99880.91;5061145;28;20037;-72
2023/02/17 02:31:40;;;;;;;0.60;0.60;;;;;;;3.81;90.92;99873.19;5045692;28;20021;-72
2023/02/17 02:34:11;;;;;;;0.52;0.52;;;;;;;3.84;90.82;99880.94;5045717;28;20029;-72
2023/02/17 02:36:47;;;;;;;0.70;0.70;;;;;;;3.75;91.11;99865.44;5044456;28;20063;-73
2023/02/17 02:39:17;;;;;;;0.60;0.60;;;;;;;3.79;91.14;99867.16;5045348;28;20037;-72
2023/02/17 02:41:47;;;;;;;0.93;0.93;;;;;;;3.80;91.28;99859.47;5045613;28;20377;-72
2023/02/17 02:44:16;;;;;;;0.93;0.93;;;;;;;3.83;91.27;99856.09;5045353;28;20051;-72
2023/02/17 02:46:41;;;;;;;1.50;1.40;;;;;;;3.79;91.26;99851.75;5045603;28;20025;-73
2023/02/17 02:49:08;;;;;;;1.58;1.55;;;;;;;3.84;91.33;99844.97;5045328;28;20021;-72
2023/02/17 02:51:39;;;;;;;0.57;0.57;;;;;;;3.85;91.17;99844.13;5045517;28;20029;-72
2023/02/17 02:54:20;;;;;;;1.90;1.80;;;;;;;3.80;91.30;99827.84;5060856;28;20057;-71
2023/02/17 02:56:58;;;;;;;0.50;0.50;;;;;;;3.80;91.18;99835.53;5060798;28;20428;-72
2023/02/17 02:59:43;;;;;;;0.70;0.70;;;;;;;3.81;91.12;99824.41;5060440;28;20055;-71
2023/02/17 03:02:30;;;;;;;2.60;1.35;;;;;;;3.78;91.21;99826.94;5045490;28;20021;-70
2023/02/17 03:04:58;;;;;;;3.65;3.35;;;;;;;3.78;90.94;99824.38;5060426;28;20021;-71
2023/02/17 03:07:32;;;;;;;0.50;0.50;;;;;;;3.75;91.23;99816.66;5044973;28;20025;-71
2023/02/17 03:09:59;;;;;;;0.60;0.60;;;;;;;3.75;91.31;99812.38;5059776;28;20029;-71
2023/02/17 03:12:25;;;;;;;0.50;0.50;;;;;;;3.78;91.00;99803.84;5045478;28;20030;-71
2023/02/17 03:15:02;;;;;;;0.70;0.70;;;;;;;3.78;90.93;99803.84;5045157;28;20101;-71
2023/02/17 03:17:31;;;;;;;1.05;1.05;;;;;;;3.77;91.00;99802.97;5060647;28;20029;-71
2023/02/17 03:19:57;;;;;;;0.52;0.52;;;;;;;3.82;90.90;99795.31;5045283;28;20026;-72
2023/02/17 03:22:29;;;;;;;0.50;0.50;;;;;;;3.78;91.33;99785.84;5045409;28;20052;-70
2023/02/17 03:24:55;;;;;;;0.60;0.60;;;;;;;3.82;90.96;99775.63;5045154;28;20022;-70
2023/02/17 03:27:20;;;;;;;0.60;0.60;;;;;;;3.82;90.97;99765.34;5045160;28;20036;-70
2023/02/17 03:29:45;;;;;;;0.50;0.50;;;;;;;3.84;90.72;99762.81;5043327;28;20120;-70
2023/02/17 03:32:11;;;;;;;0.50;0.50;;;;;;;3.83;91.01;99759.38;5044808;28;20056;-70
2023/02/17 03:34:36;;;;;;;1.38;1.35;;;;;;;3.83;90.99;99754.22;5044768;28;20048;-70
2023/02/17 03:37:02;;;;;;;2.10;2.00;;;;;;;3.82;91.00;99749.06;5043536;28;20030;-71
2023/02/17 03:39:27;;;;;;;0.63;0.63;;;;;;;3.84;91.07;99738.00;5045406;28;20049;-71
2023/02/17 03:41:53;;;;;;;0.68;0.68;;;;;;;3.82;91.25;99736.25;5045655;28;20470;-71
2023/02/17 03:44:18;;;;;;;1.30;1.30;;;;;;;3.84;91.41;99727.72;5044620;28;20022;-69
2023/02/17 03:46:45;;;;;;;0.55;0.55;;;;;;;3.84;91.44;99724.28;5045160;28;20112;-69
2023/02/17 03:49:11;;;;;;;0.50;0.50;;;;;;;3.80;91.35;99713.13;5059975;28;20021;-69
2023/02/17 03:51:36;;;;;;;0.57;0.57;;;;;;;3.76;91.73;99702.81;5044627;28;20037;-69
2023/02/17 03:54:02;;;;;;;0.50;0.50;;;;;;;3.69;nan;99689.94;5044826;28;20021;-70
2023/02/17 03:56:27;;;;;;;0.45;0.45;;;;;;;3.78;91.53;99685.72;5044766;28;20023;-69
2023/02/17 03:58:53;;;;;;;0.77;0.77;;;;;;;3.70;92.01;99675.41;5044742;28;20021;-69
2023/02/17 04:01:18;;;;;;;1.40;1.40;;;;;;;3.65;92.17;99675.38;5044389;28;20021;-70
2023/02/17 04:03:44;;;;;;;0.50;0.50;;;;;;;3.52;92.65;99647.84;5044690;28;20082;-71
2023/02/17 04:06:10;;;;;;;1.40;1.40;;;;;;;3.56;92.77;99654.75;5044466;28;20025;-71
2023/02/17 04:08:36;;;;;;;0.50;0.50;;;;;;;3.53;93.26;99649.59;5044468;28;20036;-71
2023/02/17 04:11:04;;;;;;;0.63;0.63;;;;;;;3.52;93.37;99647.84;5043184;28;20026;-71
2023/02/17 04:13:30;;;;;;;0.50;0.50;;;;;;;3.50;93.31;99636.75;5044522;28;20084;-71
2023/02/17 04:15:55;;;;;;;0.50;0.50;;;;;;;3.53;93.19;99645.31;5044574;28;20032;-74
2023/02/17 04:18:22;;;;;;;0.50;0.50;;;;;;;3.43;93.75;99631.56;5044531;28;20035;-72
2023/02/17 04:20:49;;;;;;;1.05;1.05;;;;;;;3.46;93.81;99633.28;5046935;28;20022;-72
2023/02/17 04:23:15;;;;;;;0.50;0.50;;;;;;;3.50;93.92;99629.88;5063508;28;20025;-72
2023/02/17 04:25:40;;;;;;;0.50;0.50;;;;;;;3.53;93.87;99627.34;5048470;28;20028;-72
2023/02/17 04:28:06;;;;;;;0.57;0.57;;;;;;;3.46;94.43;99623.00;5063398;28;20026;-71
2023/02/17 04:30:32;;;;;;;0.50;0.50;;;;;;;3.49;94.39;99610.22;5047997;28;20105;-72
2023/02/17 04:32:58;;;;;;;0.52;0.52;;;;;;;3.46;94.48;99595.66;5048182;28;20031;-72
2023/02/17 04:35:24;;;;;;;0.50;0.50;;;;;;;3.46;94.66;99587.09;5047983;28;20484;-72
2023/02/17 04:37:50;;;;;;;0.40;0.40;;;;;;;3.47;94.74;99588.78;5046504;28;20029;-72
2023/02/17 04:40:16;;;;;;;0.50;0.50;;;;;;;3.51;95.15;99577.72;5047709;28;20054;-71
2023/02/17 04:42:41;;;;;;;0.50;0.50;;;;;;;3.58;94.51;99570.91;5047901;28;20646;-71
2023/02/17 04:45:08;;;;;;;0.50;0.50;;;;;;;3.53;94.81;99558.03;5047490;28;20447;-73
2023/02/17 04:47:34;;;;;;;0.50;0.50;;;;;;;3.59;95.39;99567.50;5047754;28;20053;-72
2023/02/17 04:49:59;;;;;;;0.50;0.50;;;;;;;3.46;95.36;99535.75;5062905;28;20052;-74
2023/02/17 04:52:25;;;;;;;0.50;0.50;;;;;;;3.81;95.13;99552.22;5047666;28;20026;-72
2023/02/17 04:54:50;;;;;;;0.52;0.52;;;;;;;3.66;95.79;99548.72;5047509;28;20022;-73
2023/02/17 04:57:16;;;;;;;0.50;0.50;;;;;;;3.70;95.60;99529.94;5046287;28;20026;-73
2023/02/17 04:59:41;;;;;;;0.50;0.50;;;;;;;3.74;95.69;99527.38;5046211;28;20041;-72
2023/02/17 05:02:07;;;;;;;0.50;0.50;;;;;;;3.91;95.57;99515.50;5047349;28;20025;-73
2023/02/17 05:04:32;;;;;;;0.50;0.50;;;;;;;3.91;95.32;99512.06;5047450;28;20032;-73
2023/02/17 05:06:58;;;;;;;0.50;0.50;;;;;;;3.80;95.64;99483.75;5047536;28;20018;-73
2023/02/17 05:09:23;;;;;;;0.50;0.50;;;;;;;3.83;95.93;99482.03;5047175;28;20163;-72
2023/02/17 05:11:49;;;;;;;0.50;0.50;;;;;;;3.87;96.20;99476.91;5047328;28;20025;-72
2023/02/17 05:14:14;;;;;;;1.25;1.25;;;;;;;3.99;95.88;99471.84;5047230;28;20430;-73
2023/02/17 05:16:40;;;;;;;0.50;0.50;;;;;;;4.02;95.85;99468.44;5047179;28;20429;-77
2023/02/17 05:19:05;;;;;;;0.50;0.50;;;;;;;3.87;96.37;99464.94;5047197;28;20089;-75
2023/02/17 05:21:31;;;;;;;0.40;0.40;;;;;;;3.95;96.31;99457.25;5045704;28;20022;-73
2023/02/17 05:23:57;;;;;;;0.50;0.50;;;;;;;3.96;96.03;99447.00;5047121;28;20033;-73
2023/02/17 05:26:22;;;;;;;0.50;0.50;;;;;;;3.96;96.44;99441.03;5045754;28;20030;-77
2023/02/17 05:28:48;;;;;;;0.50;0.50;;;;;;;3.90;96.68;99429.00;5047222;28;20022;-77
2023/02/17 05:31:13;;;;;;;0.50;0.50;;;;;;;3.99;96.71;99422.19;5046118;28;20026;-77
2023/02/17 05:33:39;;;;;;;0.50;0.50;;;;;;;3.99;96.78;99422.19;5062287;28;20018;-77
2023/02/17 05:36:07;;;;;;;0.50;0.50;;;;;;;4.01;96.83;99411.06;5062373;28;20029;-72
2023/02/17 05:38:34;;;;;;;0.68;0.68;;;;;;;3.99;97.10;99393.94;5046811;28;20059;-70
2023/02/17 05:40:59;;;;;;;0.50;0.50;;;;;;;4.08;96.52;99386.25;5046639;28;20181;-68
2023/02/17 05:43:25;;;;;;;0.50;0.50;;;;;;;4.19;95.90;99384.56;5046638;28;20040;-71
2023/02/17 05:45:50;;;;;;;0.50;0.50;;;;;;;4.10;96.29;99369.13;5046380;28;20417;-72
2023/02/17 05:48:16;;;;;;;0.50;0.50;;;;;;;4.19;95.74;99345.16;5046570;28;20470;-72
2023/02/17 05:50:42;;;;;;;0.60;0.60;;;;;;;4.03;96.85;99346.84;5046433;28;20026;-76
2023/02/17 05:53:08;;;;;;;0.50;0.50;;;;;;;4.00;97.23;99326.28;5045122;28;20025;-77
2023/02/17 05:55:33;;;;;;;0.43;0.43;;;;;;;4.13;96.60;99330.59;5046642;28;20033;-76
2023/02/17 05:57:59;;;;;;;0.50;0.50;;;;;;;4.03;97.27;99313.47;5045293;28;20022;-76
2023/02/17 06:00:24;;;;;;;0.50;0.50;;;;;;;4.04;97.47;99317.75;5046181;28;20025;-75
2023/02/17 06:02:50;;;;;;;0.50;0.50;;;;;;;4.05;96.75;99293.78;5046608;28;20021;-74
2023/02/17 06:05:15;;;;;;;0.50;0.50;;;;;;;4.05;97.32;99315.19;5046508;28;20049;-75
2023/02/17 06:07:41;;;;;;;0.50;0.50;;;;;;;4.05;97.70;99309.19;5044910;28;20033;-75
2023/02/17 06:10:07;;;;;;;0.50;0.50;;;;;;;4.13;97.38;99304.91;5046253;28;20028;-75
2023/02/17 06:12:33;;;;;;;0.43;0.43;;;;;;;4.07;97.68;99297.22;5046217;28;20033;-75
2023/02/17 06:14:58;;;;;;;0.50;0.50;;;;;;;4.06;97.77;99293.78;5061157;28;20454;-76
2023/02/17 06:17:25;;;;;;;0.50;0.50;;;;;;;4.06;97.71;99280.06;5046414;28;20033;-73
2023/02/17 06:19:50;;;;;;;0.50;0.50;;;;;;;4.03;97.74;99273.22;5045926;28;20027;-75
2023/02/17 06:22:15;;;;;;;0.50;0.50;;;;;;;3.97;97.85;99258.69;5061338;28;20022;-76
2023/02/17 06:24:41;;;;;;;0.50;0.50;;;;;;;4.05;97.92;99265.53;5044834;28;20024;-75
2023/02/17 06:27:06;;;;;;;0.50;0.50;;;;;;;4.00;97.95;99249.25;5045910;28;20033;-76
2023/02/17 06:29:32;;;;;;;0.50;0.50;;;;;;;4.06;98.12;99250.09;5044332;28;20029;-76
2023/02/17 06:31:57;;;;;;;0.50;0.50;;;;;;;4.06;98.04;99239.84;5045883;28;20071;-75
2023/02/17 06:34:23;;;;;;;0.50;0.50;;;;;;;4.03;97.89;99231.28;5045932;28;20025;-75
2023/02/17 06:36:48;;;;;;;0.47;0.47;;;;;;;4.07;98.08;99238.97;5061596;28;20025;-75
2023/02/17 06:39:14;;;;;;;0.70;0.70;;;;;;;4.05;97.94;99234.69;5049610;28;20026;-76
2023/02/17 06:41:39;;;;;;;0.47;0.47;;;;;;;4.08;98.26;99227.84;5049466;28;20040;-75
2023/02/17 06:44:05;;;;;;;0.50;0.50;;;;;;;4.10;98.22;99225.28;5046010;28;20167;-76
2023/02/17 06:46:30;;;;;;;0.50;0.50;;;;;;;4.12;98.26;99220.97;5044422;28;20029;-76
2023/02/17 06:48:56;;;;;;;0.40;0.40;;;;;;;4.11;98.33;99224.41;5045897;28;20029;-76
2023/02/17 06:51:21;;;;;;;0.40;0.40;;;;;;;4.10;98.18;99199.59;5045502;28;20056;-76
2023/02/17 06:53:47;;;;;;;0.50;0.50;;;;;;;4.16;98.26;99202.16;5061089;28;20021;-76
2023/02/17 06:56:12;;;;;;;0.50;0.50;;;;;;;4.17;98.37;99179.91;5045814;28;20473;-77
2023/02/17 06:58:38;;;;;;;0.50;0.50;;;;;;;4.20;98.48;99185.88;5061491;28;20060;-77
2023/02/17 07:01:04;;;;;;;0.50;0.50;;;;;;;4.19;98.24;99170.47;5045861;28;20593;-76
2023/02/17 07:03:30;;;;;;;0.50;0.50;;;;;;;4.18;98.46;99171.31;5044290;28;20052;-76
2023/02/17 07:05:57;;;;;;;0.50;0.50;;;;;;;4.22;98.41;99178.16;5045581;28;20079;-76
2023/02/17 07:08:23;;;;;;;0.50;0.50;;;;;;;4.20;98.58;99151.63;5045573;28;20029;-76
2023/02/17 07:10:48;;;;;;;0.50;0.50;;;;;;;4.25;98.69;99154.19;5045500;28;20117;-75
2023/02/17 07:13:14;;;;;;;0.68;0.68;;;;;;;4.28;98.86;99144.75;5045582;28;20018;-76
2023/02/17 07:15:39;;;;;;;0.40;0.40;;;;;;;4.34;98.68;99142.16;5045208;28;20025;-77
2023/02/17 07:18:06;;;;;;;0.50;0.50;;;;;;;4.31;98.81;99137.03;5045720;28;20021;-77
2023/02/17 07:20:32;;;;;;;0.50;0.50;;;;;;;4.37;98.73;99141.31;5045888;28;20029;-76
2023/02/17 07:23:00;;;;;;;0.50;0.50;;;;;;;4.38;98.71;99140.44;5060802;28;20025;-76
2023/02/17 07:25:26;;;;;;;0.50;0.50;;;;;;;4.39;98.80;99134.44;5061046;28;20029;-77
2023/02/17 07:27:51;;;;;;;0.50;0.50;;;;;;;4.41;98.97;99130.13;5045973;28;20025;-75
2023/02/17 07:30:17;;;;;;;0.40;0.40;;;;;;;4.44;98.92;99117.28;5045318;28;20035;-77
2023/02/17 07:32:43;;;;;;;0.50;0.50;;;;;;;4.46;98.84;99112.13;5045171;28;20064;-76
2023/02/17 07:35:09;;;;;;;0.50;0.50;;;;;;;4.47;98.93;99099.28;5045545;28;20060;-76
2023/02/17 07:37:34;;;;;;;0.50;0.50;;;;;;;4.51;99.13;99087.28;5045873;28;20053;-77
2023/02/17 07:40:00;;;;;;;0.50;0.50;;;;;;;4.52;99.02;99088.13;5045716;28;20045;-76
2023/02/17 07:42:28;;;;;;;0.50;0.50;;;;;;;4.51;98.99;99068.41;5045686;28;20017;-76
2023/02/17 07:44:53;;;;;;;0.50;0.50;;;;;;;4.52;99.31;99065.00;5043793;28;20029;-77
2023/02/17 07:47:19;;;;;;;0.50;0.50;;;;;;;4.54;99.34;99058.13;5045112;28;20075;-76
2023/02/17 07:49:44;;;;;;;0.50;0.50;;;;;;;4.60;99.45;99055.50;5045216;28;20026;-77
2023/02/17 07:52:10;;;;;;;0.47;0.47;;;;;;;4.63;99.78;99034.09;5045469;28;20031;-75
2023/02/17 07:54:35;;;;;;;0.50;0.50;;;;;;;4.69;99.68;99039.19;5046125;28;20048;-75
2023/02/17 07:57:01;;;;;;;0.50;0.50;;;;;;;4.73;99.99;99032.31;5047871;28;20029;-75
2023/02/17 07:59:26;;;;;;;0.40;0.40;;;;;;;4.79;99.90;99027.97;5049101;28;20029;-74
2023/02/17 08:01:52;;;;;;;0.50;0.50;;;;;;;4.83;100.00;99015.94;5064433;28;20033;-76
2023/02/17 08:04:17;;;;;;;0.45;0.45;;;;;;;4.86;99.95;99015.91;5048887;28;20034;-76
2023/02/17 08:06:43;;;;;;;0.50;0.50;;;;;;;4.88;100.00;99009.06;5049145;28;20039;-76
2023/02/17 08:14:38;;;;;;;0.50;0.50;;;;;;;4.92;100.00;98969.56;5048571;28;20048;-74
2023/02/17 08:17:04;;;;;;;0.50;0.50;;;;;;;4.96;100.00;98967.84;5048814;28;20073;-75
2023/02/17 08:19:29;;;;;;;0.50;0.50;;;;;;;4.94;100.00;98947.28;5063846;28;20021;-74
2023/02/17 08:21:55;;;;;;;0.50;0.50;;;;;;;5.00;100.00;98954.06;5048442;28;20021;-75
2023/02/17 08:24:21;;;;;;;0.50;0.50;;;;;;;4.95;100.00;98928.41;5048603;28;20018;-74
2023/02/17 08:26:47;;;;;;;0.50;0.50;;;;;;;5.00;100.00;98924.94;5048456;28;20029;-74
2023/02/17 08:29:13;;;;;;;0.40;0.40;;;;;;;4.96;100.00;98912.13;5048361;28;20036;-76
2023/02/17 08:31:40;;;;;;;0.50;0.50;;;;;;;4.99;100.00;98911.22;5063462;28;20544;-74
2023/02/17 08:34:08;;;;;;;0.50;0.50;;;;;;;4.96;100.00;98893.25;5063779;28;20021;-75
2023/02/17 08:36:38;;;;;;;0.40;0.40;;;;;;;5.02;100.00;98893.19;5048458;28;20122;-74
2023/02/17 08:39:05;;;;;;;0.50;0.50;;;;;;;5.07;100.00;98880.28;5048077;28;20044;-74
2023/02/17 08:41:35;;;;;;;0.50;0.50;;;;;;;5.07;100.00;98859.69;5048202;28;20044;-75
2023/02/17 08:44:06;;;;;;;0.50;0.50;;;;;;;5.12;100.00;98867.38;5063353;28;20032;-74
2023/02/17 08:46:34;;;;;;;0.50;0.50;;;;;;;5.15;100.00;98864.75;5048067;28;20029;-75
2023/02/17 08:49:00;;;;;;;0.50;0.50;;;;;;;5.17;100.00;98856.19;5046784;28;20048;-74
2023/02/17 08:51:25;;;;;;;0.50;0.50;;;;;;;5.15;100.00;98845.03;5046540;28;20029;-74
2023/02/17 08:53:53;;;;;;;0.50;0.50;;;;;;;5.20;100.00;98855.28;5048005;28;20021;-75
2023/02/17 08:56:19;;;;;;;0.50;0.50;;;;;;;5.14;100.00;98822.75;5048006;28;20036;-77
2023/02/17 08:58:44;;;;;;;0.50;0.50;;;;;;;5.21;100.00;98826.94;5047946;28;20030;-74
2023/02/17 09:01:11;;;;;;;0.50;0.50;;;;;;;5.23;100.00;98819.22;5047599;28;20399;-74
2023/02/17 09:03:40;;;;;;;0.50;0.50;;;;;;;5.26;100.00;98813.16;5047665;28;20462;-75
2023/02/17 09:06:07;;;;;;;0.47;0.47;;;;;;;5.27;100.00;98810.56;5046456;28;20033;-75
2023/02/17 09:08:33;;;;;;;0.40;0.40;;;;;;;5.24;100.00;98796.91;5046439;28;20075;-75
2023/02/17 09:10:58;;;;;;;0.50;0.50;;;;;;;5.27;100.00;98794.31;5047876;28;20423;-75
2023/02/17 09:13:25;;;;;;;0.50;0.50;;;;;;;5.28;100.00;98784.00;5047852;28;20029;-75
2023/02/17 09:15:52;;;;;;;0.50;0.50;;;;;;;5.28;100.00;98780.56;5046303;28;20097;-75
2023/02/17 09:18:19;;;;;;;0.50;0.50;;;;;;;5.31;100.00;98767.66;5047684;28;20426;-75
2023/02/17 09:20:45;;;;;;;0.50;0.50;;;;;;;5.29;100.00;98744.50;5047432;28;20024;-76
2023/02/17 09:23:11;;;;;;;0.50;0.50;;;;;;;5.31;100.00;98740.22;5047450;28;20108;-76
2023/02/17 09:25:36;;;;;;;0.45;0.45;;;;;;;5.38;100.00;98733.25;5047544;28;20091;-76
2023/02/17 09:28:02;;;;;;;0.40;0.40;;;;;;;5.43;100.00;98730.63;5047362;28;20068;-75
2023/02/17 09:30:28;;;;;;;0.50;0.50;;;;;;;5.42;100.00;98710.88;5047295;28;20022;-75
2023/02/17 09:32:54;;;;;;;0.40;0.40;;;;;;;5.48;100.00;98710.78;5047357;28;20025;-75
2023/02/17 09:35:19;;;;;;;0.50;0.50;;;;;;;5.52;100.00;98703.88;5047377;28;20044;-74
2023/02/17 09:37:45;;;;;;;0.50;0.50;;;;;;;5.55;100.00;98690.97;5047300;28;20032;-75
2023/02/17 09:40:21;;;;;;;0.40;0.40;;;;;;;5.60;100.00;98685.72;5047850;28;20125;-76
2023/02/17 09:42:47;;;;;;;0.50;0.50;;;;;;;5.62;100.00;98673.69;5052133;28;20036;-74
2023/02/17 09:45:19;;;;;;;0.60;0.60;;;;;;;5.66;100.00;98676.19;5047527;28;20052;-75
2023/02/17 09:47:58;;;;;;;0.45;0.45;;;;;;;5.66;100.00;98662.47;5047029;28;20025;-75
2023/02/17 09:51:09;;;;;;;0.50;0.50;;;;;;;5.70;100.00;98654.66;5046958;28;20021;-75
2023/02/17 09:53:34;;;;;;;0.40;0.40;;;;;;;5.73;100.00;98637.47;5044729;28;20418;-76
2023/02/17 09:56:03;;;;;;;0.40;0.40;;;;;;;5.75;100.00;98651.19;5047048;28;20029;-75
2023/02/17 09:58:39;;;;;;;0.40;0.40;;;;;;;5.75;100.00;98631.41;5046800;28;20025;-75
2023/02/17 10:01:11;;;;;;;0.40;0.40;;;;;;;5.78;100.00;98625.38;5046728;28;20075;-76
2023/02/17 10:03:41;;;;;;;0.60;0.60;;;;;;;5.79;100.00;98627.06;5045535;28;20040;-76
2023/02/17 10:06:30;;;;;;;0.50;0.50;;;;;;;5.77;100.00;98603.91;5047076;28;20413;-75
2023/02/17 10:09:19;;;;;;;0.40;0.40;;;;;;;5.74;100.00;98613.41;5045340;28;20026;-76
2023/02/17 10:12:00;;;;;;;0.40;0.40;;;;;;;5.68;100.00;98589.50;5061856;28;20041;-77
2023/02/17 10:14:36;;;;;;;0.50;0.50;;;;;;;5.69;100.00;98590.31;5046656;28;20088;-75
2023/02/17 10:17:12;;;;;;;0.50;0.50;;;;;;;5.68;100.00;98581.75;5046146;28;20021;-75
2023/02/17 10:19:50;;;;;;;0.50;0.50;;;;;;;5.66;100.00;98557.75;5045044;28;20082;-75
2023/02/17 10:22:21;;;;;;;0.40;0.40;;;;;;;5.62;100.00;98540.69;5061512;28;20116;-76
2023/02/17 10:24:47;;;;;;;0.50;0.50;;;;;;;5.63;100.00;98526.06;5046343;28;20022;-75
2023/02/17 10:27:31;;;;;;;0.40;0.40;;;;;;;5.62;100.00;98511.50;5044763;28;20036;-75
2023/02/17 10:30:07;;;;;;;0.50;0.50;;;;;;;5.62;100.00;98493.47;5061360;28;20029;-77
2023/02/17 10:32:57;;;;;;;0.50;0.50;;;;;;;5.61;100.00;98477.19;5044591;28;20027;-75
2023/02/17 10:35:28;;;;;;;0.50;0.50;;;;;;;5.58;100.00;98470.38;5046036;28;20025;-73
2023/02/17 10:38:05;;;;;;;0.40;0.40;;;;;;;5.68;100.00;98463.31;5046251;28;20029;-76
2023/02/17 10:40:31;;;;;;;0.50;0.50;;;;;;;5.69;100.00;98452.13;5045525;28;20054;-74
2023/02/17 10:43:00;;;;;;;0.40;0.40;;;;;;;5.74;100.00;98443.47;5045929;28;20037;-75
2023/02/17 10:45:43;;;;;;;0.50;0.50;;;;;;;5.79;100.00;98432.22;5044286;28;20021;-76
2023/02/17 10:48:15;;;;;;;0.50;0.50;;;;;;;5.80;100.00;98409.84;5045969;28;20026;-76
2023/02/17 10:50:43;;;;;;;0.40;0.40;;;;;;;5.79;100.00;98427.06;5045762;28;20025;-76
2023/02/17 10:53:14;;;;;;;0.50;0.50;;;;;;;5.77;100.00;98413.34;5045956;28;20021;-75
2023/02/17 10:56:02;;;;;;;0.40;0.40;;;;;;;5.77;100.00;98405.63;5045745;28;20081;-76
2023/02/17 10:58:59;;;;;;;0.50;0.50;;;;;;;5.76;100.00;98397.94;5082458;27;20386;-68
2023/02/17 11:01:26;;;;;;;0.60;0.60;;;;;;;5.77;100.00;98376.44;5082634;28;20039;-69
2023/02/17 11:04:10;;;;;;;0.50;0.50;;;;;;;5.78;100.00;98384.13;5082720;28;20491;-68
2023/02/17 11:06:50;;;;;;;0.50;0.50;;;;;;;5.77;100.00;98354.13;5082525;28;20058;-69
2023/02/17 11:09:27;;;;;;;0.40;0.40;;;;;;;5.79;100.00;98339.50;5082419;28;20036;-68
2023/02/17 11:12:20;;;;;;;0.50;0.50;;;;;;;5.79;100.00;98324.06;5082520;28;20021;-69
2023/02/17 11:14:49;;;;;;;0.40;0.40;;;;;;;5.80;100.00;98309.44;5081963;28;20491;-71
2023/02/17 11:17:22;;;;;;;0.50;0.50;;;;;;;5.79;100.00;98294.88;5082296;28;20068;-70
2023/02/17 11:20:14;;;;;;;0.50;0.50;;;;;;;5.78;100.00;98282.88;5080701;28;20025;-67
2023/02/17 11:22:41;;;;;;;0.50;0.50;;;;;;;5.77;100.00;98268.31;5073819;28;20055;-69
2023/02/17 11:25:28;;;;;;;0.50;0.50;;;;;;;5.73;100.00;98256.41;5082176;28;20041;-68
2023/02/17 11:27:59;;;;;;;0.50;0.50;;;;;;;5.73;100.00;98251.25;5081001;28;20025;-69
2023/02/17 11:30:27;;;;;;;0.40;0.40;;;;;;;5.74;100.00;98227.19;5081791;28;20033;-71
2023/02/17 11:32:57;;;;;;;0.50;0.50;;;;;;;5.73;100.00;98248.66;5081923;28;20032;-69
2023/02/17 11:35:27;;;;;;;0.45;0.45;;;;;;;5.70;100.00;98223.84;5080642;28;20084;-67
2023/02/17 11:38:24;;;;;;;0.47;0.47;;;;;;;5.63;100.00;98205.13;5082040;28;20051;-68
2023/02/17 11:41:01;;;;;;;0.40;0.40;;;;;;;5.65;100.00;98182.78;5083621;28;20032;-68
2023/02/17 11:43:28;;;;;;;0.40;0.40;;;;;;;5.64;100.00;98191.34;5081914;28;20032;-68
2023/02/17 11:46:05;;;;;;;0.50;0.50;;;;;;;5.63;100.00;98179.38;5080396;28;20070;-67
2023/02/17 11:49:07;;;;;;;0.50;0.50;;;;;;;5.61;100.00;98154.56;5081732;28;20071;-69
2023/02/17 11:51:57;;;;;;;0.50;0.50;;;;;;;5.58;100.00;98140.03;5072547;28;20037;-68
2023/02/17 11:54:48;;;;;;;0.50;0.50;;;;;;;5.58;100.00;98145.19;5081531;28;20084;-69